createdAt,value
2022-12-04T00:00:27.453Z,50.94
2022-12-04T00:02:54.338Z,51.21
2022-12-04T00:05:21.432Z,50.04
2022-12-04T00:07:48.343Z,51.34
2022-12-04T00:10:15.303Z,51.69
2022-12-04T00:12:42.170Z,51.68
2022-12-04T00:15:25.329Z,52.14
2022-12-04T00:17:53.060Z,51.06
2022-12-04T00:20:20.048Z,52.31
2022-12-04T00:22:46.920Z,51.42
2022-12-04T00:25:13.747Z,52.58
2022-12-04T00:27:40.850Z,50.39
2022-12-04T00:30:08.181Z,52.21
2022-12-04T00:32:35.882Z,51.34
2022-12-04T00:35:03.032Z,51.31
2022-12-04T00:37:29.851Z,51.28
2022-12-04T00:39:56.931Z,51.03
2022-12-04T00:42:24.265Z,51.09
2022-12-04T00:44:51.290Z,51.92
2022-12-04T00:47:18.326Z,51.54
2022-12-04T00:49:45.360Z,52.67
2022-12-04T00:52:12.170Z,50.76
2022-12-04T00:54:39.012Z,51.32
2022-12-04T00:57:05.998Z,51.37
2022-12-04T00:59:32.846Z,51.17
2022-12-04T01:01:59.851Z,50.67
2022-12-04T01:04:26.687Z,51.65
2022-12-04T01:06:53.677Z,51.57
2022-12-04T01:09:20.697Z,52.87
2022-12-04T01:11:47.527Z,53.88
2022-12-04T01:14:14.385Z,52.68
2022-12-04T01:16:41.554Z,52.79
2022-12-04T01:19:11.581Z,51.77
2022-12-04T01:21:39.350Z,52.50
2022-12-04T01:24:06.950Z,52.33
2022-12-04T01:26:34.190Z,51.55
2022-12-04T01:29:01.790Z,52.16
2022-12-04T01:31:28.999Z,52.35
2022-12-04T01:33:56.055Z,51.34
2022-12-04T01:36:26.507Z,51.26
2022-12-04T01:38:54.314Z,52.10
2022-12-04T01:41:24.801Z,52.43
2022-12-04T01:44:16.234Z,52.32
2022-12-04T01:46:46.214Z,50.93
2022-12-04T01:49:26.057Z,50.42
2022-12-04T01:52:02.168Z,51.42
2022-12-04T01:54:34.438Z,52.88
2022-12-04T01:57:16.750Z,52.33
2022-12-04T02:00:00.001Z,51.65
2022-12-04T02:02:34.766Z,52.12
2022-12-04T02:05:03.862Z,52.60
2022-12-04T02:07:32.151Z,54.28
2022-12-04T02:10:03.756Z,53.71
2022-12-04T02:13:04.590Z,53.61
2022-12-04T02:15:59.439Z,53.33
2022-12-04T02:18:46.024Z,52.36
2022-12-04T02:21:34.106Z,53.26
2022-12-04T02:24:46.785Z,54.03
2022-12-04T02:27:50.975Z,52.44
2022-12-04T02:30:18.439Z,53.24
2022-12-04T02:33:00.219Z,54.03
2022-12-04T02:35:42.596Z,54.68
2022-12-04T02:38:27.940Z,53.57
2022-12-04T02:41:14.303Z,53.48
2022-12-04T02:43:48.433Z,53.74
2022-12-04T02:46:38.976Z,54.38
2022-12-04T02:49:14.393Z,51.70
2022-12-04T02:51:46.492Z,54.28
2022-12-04T02:54:30.176Z,55.16
2022-12-04T02:56:59.928Z,53.46
2022-12-04T02:59:35.599Z,54.68
2022-12-04T03:02:17.962Z,54.83
2022-12-04T03:04:50.508Z,55.72
2022-12-04T03:07:45.856Z,56.86
2022-12-04T03:10:35.915Z,55.42
2022-12-04T03:13:18.395Z,56.28
2022-12-04T03:15:50.678Z,55.32
2022-12-04T03:18:32.918Z,54.56
2022-12-04T03:21:06.394Z,55.89
2022-12-04T03:23:42.608Z,55.83
2022-12-04T03:26:30.297Z,56.13
2022-12-04T03:29:03.116Z,55.16
2022-12-04T03:32:01.303Z,54.28
2022-12-04T03:34:38.015Z,55.52
2022-12-04T03:37:15.538Z,54.81
2022-12-04T03:39:56.205Z,55.43
2022-12-04T03:42:28.903Z,55.94
2022-12-04T03:45:06.480Z,54.50
2022-12-04T03:47:45.030Z,55.34
2022-12-04T03:50:28.771Z,54.64
2022-12-04T03:53:08.779Z,56.97
2022-12-04T03:55:50.038Z,55.47
2022-12-04T03:58:28.875Z,55.65
2022-12-04T04:01:09.247Z,55.42
2022-12-04T04:03:48.733Z,56.69
2022-12-04T04:06:55.727Z,54.57
2022-12-04T04:09:27.320Z,55.59
2022-12-04T04:12:02.835Z,54.57
2022-12-04T04:15:15.728Z,56.26
2022-12-04T04:18:06.096Z,55.21
2022-12-04T04:21:15.667Z,55.11
2022-12-04T04:24:07.227Z,54.80
2022-12-04T04:26:41.518Z,54.01
2022-12-04T04:29:10.244Z,54.29
2022-12-04T04:32:06.922Z,54.68
2022-12-04T04:34:47.334Z,52.97
2022-12-04T04:37:23.345Z,54.32
2022-12-04T04:40:18.319Z,54.29
2022-12-04T04:43:04.334Z,53.87
2022-12-04T04:45:37.140Z,54.15
2022-12-04T04:48:17.469Z,52.78
2022-12-04T04:50:46.023Z,54.49
2022-12-04T04:53:20.043Z,52.34
2022-12-04T04:55:48.250Z,52.20
2022-12-04T04:58:19.297Z,50.46
2022-12-04T05:00:55.241Z,52.25
2022-12-04T05:03:22.351Z,51.48
2022-12-04T05:05:49.314Z,50.53
2022-12-04T05:08:16.549Z,51.93
2022-12-04T05:10:43.529Z,51.57
2022-12-04T05:13:13.341Z,51.34
2022-12-04T05:15:40.903Z,50.93
2022-12-04T05:18:09.197Z,50.27
2022-12-04T05:20:40.150Z,49.75
2022-12-04T05:23:07.355Z,50.39
2022-12-04T05:25:34.449Z,51.34
2022-12-04T05:28:01.367Z,50.01
2022-12-04T05:30:28.337Z,49.51
2022-12-04T05:32:55.480Z,50.18
2022-12-04T05:35:22.607Z,49.11
2022-12-04T05:37:49.661Z,49.70
2022-12-04T05:40:16.734Z,48.83
2022-12-04T05:42:43.663Z,48.11
2022-12-04T05:45:10.630Z,49.01
2022-12-04T05:47:39.386Z,48.57
2022-12-04T05:50:08.330Z,48.13
2022-12-04T05:52:35.464Z,47.51
2022-12-04T05:55:02.493Z,46.71
2022-12-04T05:57:30.175Z,47.24
2022-12-04T05:59:57.521Z,46.21
2022-12-04T06:02:24.664Z,45.37
2022-12-04T06:04:51.591Z,46.01
2022-12-04T06:07:18.705Z,45.81
2022-12-04T06:09:45.584Z,46.33
2022-12-04T06:12:12.463Z,45.96
2022-12-04T06:14:40.164Z,46.57
2022-12-04T06:17:07.507Z,46.30
2022-12-04T06:19:34.422Z,45.48
2022-12-04T06:22:01.299Z,45.65
2022-12-04T06:24:28.192Z,44.70
2022-12-04T06:29:46.655Z,44.04
2022-12-04T06:32:19.489Z,44.15
2022-12-04T06:34:51.898Z,44.65
2022-12-04T06:37:21.812Z,44.83
2022-12-04T06:39:49.517Z,44.01
2022-12-04T06:42:17.361Z,44.74
2022-12-04T06:44:44.314Z,43.89
2022-12-04T06:47:11.375Z,43.92
2022-12-04T06:49:38.596Z,42.90
2022-12-04T06:52:05.687Z,43.64
2022-12-04T06:54:32.770Z,44.39
2022-12-04T06:56:59.683Z,42.06
2022-12-04T06:59:27.861Z,41.14
2022-12-04T07:01:55.033Z,41.89
2022-12-04T07:04:23.205Z,40.93
2022-12-04T07:06:50.248Z,40.03
2022-12-04T07:09:18.017Z,39.97
2022-12-04T07:11:45.692Z,40.04
2022-12-04T07:14:13.887Z,38.66
2022-12-04T07:16:42.856Z,38.52
2022-12-04T07:19:13.308Z,38.35
2022-12-04T07:21:40.527Z,38.73
2022-12-04T07:24:07.522Z,37.85
2022-12-04T07:26:34.603Z,38.71
2022-12-04T07:29:01.727Z,37.99
2022-12-04T07:31:29.674Z,39.84
2022-12-04T07:33:58.305Z,39.03
2022-12-04T07:36:26.119Z,39.18
2022-12-04T07:38:55.329Z,38.34
2022-12-04T07:41:22.494Z,39.41
2022-12-04T07:43:49.634Z,37.88
2022-12-04T07:46:23.255Z,38.02
2022-12-04T07:48:50.375Z,37.74
2022-12-04T07:51:21.201Z,38.70
2022-12-04T07:53:49.601Z,38.51
2022-12-04T07:56:17.977Z,38.31
2022-12-04T07:58:45.926Z,37.68
2022-12-04T08:01:14.905Z,36.28
2022-12-04T08:03:47.976Z,37.39
2022-12-04T08:06:18.125Z,36.17
2022-12-04T08:08:46.240Z,37.23
2022-12-04T08:11:16.353Z,37.02
2022-12-04T08:13:44.001Z,37.31
2022-12-04T08:16:12.306Z,37.78
2022-12-04T08:18:39.959Z,38.70
2022-12-04T08:21:08.133Z,39.04
2022-12-04T08:23:36.762Z,40.15
2022-12-04T08:26:04.726Z,38.20
2022-12-04T08:28:32.860Z,38.08
2022-12-04T08:31:06.172Z,38.06
2022-12-04T08:33:34.504Z,39.62
2022-12-04T08:36:02.318Z,42.24
2022-12-04T08:38:29.237Z,44.85
2022-12-04T08:41:00.436Z,43.86
2022-12-04T08:43:27.712Z,42.26
2022-12-04T08:46:07.877Z,42.24
2022-12-04T08:48:35.280Z,43.72
2022-12-04T08:51:04.368Z,47.61
2022-12-04T08:53:32.309Z,43.65
2022-12-04T08:56:01.419Z,42.89
2022-12-04T08:58:28.430Z,46.19
2022-12-04T09:00:55.403Z,47.17
2022-12-04T09:03:29.183Z,49.25
2022-12-04T09:06:02.724Z,46.97
2022-12-04T09:08:31.301Z,48.20
2022-12-04T09:11:06.246Z,49.35
2022-12-04T09:13:33.452Z,51.71
2022-12-04T09:16:05.057Z,50.73
2022-12-04T09:18:32.320Z,51.32
2022-12-04T09:21:01.777Z,49.86
2022-12-04T09:23:28.674Z,51.83
2022-12-04T09:25:55.578Z,49.73
2022-12-04T09:28:22.776Z,48.12
2022-12-04T09:31:01.759Z,47.82
2022-12-04T09:33:28.956Z,48.71
2022-12-04T09:35:59.132Z,49.31
2022-12-04T09:38:27.463Z,52.39
2022-12-04T09:41:13.253Z,51.00
2022-12-04T09:43:46.065Z,49.52
2022-12-04T09:46:26.162Z,46.16
2022-12-04T09:48:59.130Z,46.15
2022-12-04T09:51:28.350Z,47.24
2022-12-04T09:54:02.925Z,47.52
2022-12-04T09:56:32.027Z,48.13
2022-12-04T09:59:19.292Z,53.26
2022-12-04T10:01:51.757Z,48.97
2022-12-04T10:04:19.175Z,49.45
2022-12-04T10:07:00.063Z,47.98
2022-12-04T10:09:39.983Z,53.51
2022-12-04T10:12:13.968Z,51.16
2022-12-04T10:15:10.499Z,50.27
2022-12-04T10:17:50.484Z,59.98
2022-12-04T10:20:44.318Z,52.42
2022-12-04T10:23:38.786Z,42.61
2022-12-04T10:26:15.734Z,43.85
2022-12-04T10:28:55.417Z,47.17
2022-12-04T10:31:26.321Z,46.77
2022-12-04T10:34:05.443Z,44.13
2022-12-04T10:36:34.983Z,42.46
2022-12-04T10:39:16.352Z,42.94
2022-12-04T10:41:57.875Z,39.23
2022-12-04T10:44:25.103Z,39.80
2022-12-04T10:46:58.322Z,39.73
2022-12-04T10:49:34.996Z,41.20
2022-12-04T10:52:02.215Z,39.79
2022-12-04T10:54:29.140Z,39.17
2022-12-04T10:56:58.924Z,39.80
2022-12-04T10:59:27.177Z,41.16
2022-12-04T11:02:12.233Z,39.98
2022-12-04T11:04:41.858Z,39.67
2022-12-04T11:07:26.125Z,43.26
2022-12-04T11:10:05.763Z,44.70
2022-12-04T11:12:33.869Z,46.35
2022-12-04T11:15:21.195Z,47.09
2022-12-04T11:17:48.239Z,47.28
2022-12-04T11:20:20.401Z,48.90
2022-12-04T11:22:54.763Z,50.57
2022-12-04T11:25:25.042Z,46.97
2022-12-04T11:27:55.701Z,44.23
2022-12-04T11:30:30.747Z,44.19
2022-12-04T11:32:59.711Z,41.45
2022-12-04T11:35:29.966Z,42.89
2022-12-04T11:38:13.441Z,43.01
2022-12-04T11:40:50.367Z,45.05
2022-12-04T11:43:18.626Z,44.34
2022-12-04T11:46:00.894Z,45.44
2022-12-04T11:48:31.527Z,47.60
2022-12-04T11:51:42.799Z,47.62
2022-12-04T11:54:31.516Z,47.21
2022-12-04T11:57:37.246Z,43.01
2022-12-04T12:00:20.912Z,39.61
2022-12-04T12:02:48.001Z,37.42
2022-12-04T12:05:32.995Z,38.10
2022-12-04T12:08:21.443Z,37.82
2022-12-04T12:11:10.494Z,38.30
2022-12-04T12:13:49.345Z,38.56
2022-12-04T12:16:40.962Z,38.75
2022-12-04T12:19:39.774Z,36.13
2022-12-04T12:22:34.246Z,40.40
2022-12-04T12:25:26.058Z,40.95
2022-12-04T12:28:13.271Z,43.47
2022-12-04T12:31:08.714Z,42.38
2022-12-04T12:33:55.851Z,41.50
2022-12-04T12:36:30.823Z,42.37
2022-12-04T12:39:11.048Z,42.00
2022-12-04T12:41:53.483Z,42.14
2022-12-04T12:44:28.948Z,42.81
2022-12-04T12:47:05.636Z,43.10
2022-12-04T12:49:59.681Z,40.56
2022-12-04T12:52:43.608Z,41.18
2022-12-04T12:55:17.740Z,42.79
2022-12-04T12:58:08.611Z,42.91
2022-12-04T13:00:46.866Z,47.04
2022-12-04T13:03:29.250Z,43.97
2022-12-04T13:06:03.272Z,43.35
2022-12-04T13:08:56.195Z,44.74
2022-12-04T13:11:27.499Z,43.59
2022-12-04T13:13:58.051Z,44.98
2022-12-04T13:16:47.770Z,45.78
2022-12-04T13:19:37.010Z,44.09
2022-12-04T13:22:57.892Z,48.56
2022-12-04T13:25:31.389Z,44.52
2022-12-04T13:28:36.379Z,45.06
2022-12-04T13:31:10.380Z,46.78
2022-12-04T13:33:55.218Z,48.12
2022-12-04T13:36:57.474Z,51.64
2022-12-04T13:39:24.495Z,46.16
2022-12-04T13:42:00.771Z,44.54
2022-12-04T13:44:31.276Z,46.22
2022-12-04T13:47:06.143Z,46.05
2022-12-04T13:49:42.085Z,45.98
2022-12-04T13:52:40.717Z,45.54
2022-12-04T13:55:28.829Z,43.61
2022-12-04T13:58:02.804Z,44.23
2022-12-04T14:00:36.156Z,40.46
2022-12-04T14:03:06.809Z,39.26
2022-12-04T14:05:43.804Z,38.85
2022-12-04T14:08:19.937Z,39.57
2022-12-04T14:10:57.671Z,37.78
2022-12-04T14:13:35.816Z,37.69
2022-12-04T14:16:08.050Z,42.10
2022-12-04T14:18:35.596Z,41.18
2022-12-04T14:21:05.673Z,38.92
2022-12-04T14:23:39.141Z,37.88
2022-12-04T14:27:10.712Z,38.37
2022-12-04T14:29:28.367Z,37.94
2022-12-04T14:32:00.483Z,35.70
2022-12-04T14:34:31.783Z,35.68
2022-12-04T14:37:01.706Z,35.75
2022-12-04T14:39:45.156Z,36.30
2022-12-04T14:42:14.717Z,36.53
2022-12-04T14:44:45.146Z,38.52
2022-12-04T14:47:32.970Z,40.59
2022-12-04T14:50:28.770Z,39.42
2022-12-04T14:53:31.381Z,39.66
2022-12-04T14:56:26.102Z,39.04
2022-12-04T14:58:54.998Z,37.55
2022-12-04T15:01:29.456Z,38.27
2022-12-04T15:04:01.158Z,38.28
2022-12-04T15:06:31.392Z,36.53
2022-12-04T15:09:20.301Z,35.82
2022-12-04T15:12:15.593Z,36.39
2022-12-04T15:14:44.881Z,36.14
2022-12-04T15:17:13.677Z,35.07
2022-12-04T15:19:40.627Z,37.37
2022-12-04T15:22:33.981Z,33.96
2022-12-04T15:25:01.343Z,33.90
2022-12-04T15:27:32.628Z,34.86
2022-12-04T15:30:02.610Z,35.40
2022-12-04T15:32:31.907Z,34.40
2022-12-04T15:35:08.945Z,34.29
2022-12-04T15:37:36.727Z,33.67
2022-12-04T15:40:08.591Z,36.02
2022-12-04T15:42:35.494Z,34.97
2022-12-04T15:45:08.202Z,33.85
2022-12-04T15:47:51.543Z,34.79
2022-12-04T15:50:18.496Z,35.99
2022-12-04T15:53:03.150Z,39.96
2022-12-04T15:55:38.199Z,37.08
2022-12-04T15:58:20.811Z,35.67
2022-12-04T16:00:56.176Z,35.63
2022-12-04T16:03:32.153Z,35.86
2022-12-04T16:06:23.276Z,37.60
2022-12-04T16:08:59.520Z,35.05
2022-12-04T16:11:38.269Z,34.56
2022-12-04T16:14:08.304Z,34.49
2022-12-04T16:16:42.178Z,34.41
2022-12-04T16:19:15.956Z,36.56
2022-12-04T16:21:43.559Z,38.02
2022-12-04T16:24:13.826Z,37.23
2022-12-04T16:26:41.746Z,37.41
2022-12-04T16:29:08.775Z,36.69
2022-12-04T16:31:37.912Z,36.06
2022-12-04T16:34:05.114Z,35.53
2022-12-04T16:36:32.197Z,37.57
2022-12-04T16:38:59.022Z,37.57
2022-12-04T16:41:26.073Z,36.35
2022-12-04T16:43:56.806Z,35.97
2022-12-04T16:46:27.098Z,38.89
2022-12-04T16:48:54.539Z,37.80
2022-12-04T16:51:25.348Z,39.07
2022-12-04T16:53:53.039Z,37.43
2022-12-04T16:56:20.856Z,39.97
2022-12-04T16:58:47.966Z,37.51
2022-12-04T17:01:25.141Z,36.21
2022-12-04T17:03:52.587Z,36.99
2022-12-04T17:06:19.986Z,35.57
2022-12-04T17:08:47.005Z,36.76
2022-12-04T17:11:17.171Z,42.46
2022-12-04T17:13:44.315Z,35.94
2022-12-04T17:16:14.788Z,36.52
2022-12-04T17:18:43.686Z,38.01
2022-12-04T17:21:12.900Z,36.84
2022-12-04T17:23:40.557Z,35.48
2022-12-04T17:26:10.393Z,34.88
2022-12-04T17:28:38.246Z,34.26
2022-12-04T17:31:17.607Z,34.78
2022-12-04T17:33:46.340Z,33.98
2022-12-04T17:36:18.990Z,34.33
2022-12-04T17:38:46.266Z,35.64
2022-12-04T17:41:15.273Z,35.78
2022-12-04T17:43:43.792Z,33.66
2022-12-04T17:46:18.807Z,34.89
2022-12-04T17:48:45.967Z,34.99
2022-12-04T17:51:20.050Z,34.14
2022-12-04T17:53:47.259Z,35.27
2022-12-04T17:56:17.487Z,34.69
2022-12-04T17:58:45.804Z,35.20
2022-12-04T18:01:22.852Z,34.52
2022-12-04T18:03:52.239Z,35.64
2022-12-04T18:06:22.802Z,36.10
2022-12-04T18:08:50.608Z,36.32
2022-12-04T18:11:23.472Z,41.57
2022-12-04T18:13:57.037Z,40.05
2022-12-04T18:16:25.364Z,39.37
2022-12-04T18:18:56.860Z,40.17
2022-12-04T18:21:24.429Z,37.67
2022-12-04T18:23:51.859Z,37.67
2022-12-04T18:26:21.572Z,37.78
2022-12-04T18:28:49.568Z,39.50
2022-12-04T18:31:19.123Z,37.69
2022-12-04T18:33:47.292Z,37.35
2022-12-04T18:36:17.665Z,37.60
2022-12-04T18:38:45.963Z,40.06
2022-12-04T18:41:14.815Z,41.07
2022-12-04T18:43:44.482Z,41.82
2022-12-04T18:46:14.627Z,38.69
2022-12-04T18:48:43.414Z,40.80
2022-12-04T18:51:31.905Z,41.31
2022-12-04T18:54:02.172Z,40.34
2022-12-04T18:56:30.726Z,40.17
2022-12-04T18:58:59.513Z,37.96
2022-12-04T19:01:27.631Z,41.47
2022-12-04T19:04:01.125Z,41.73
2022-12-04T19:06:30.483Z,39.31
2022-12-04T19:09:00.670Z,39.59
2022-12-04T19:11:28.546Z,39.24
2022-12-04T19:13:55.637Z,40.95
2022-12-04T19:16:22.585Z,39.47
2022-12-04T19:18:49.679Z,39.08
2022-12-04T19:21:17.670Z,41.17
2022-12-04T19:23:51.013Z,39.30
2022-12-04T19:26:18.184Z,41.08
2022-12-04T19:28:45.210Z,42.67
2022-12-04T19:31:21.445Z,43.37
2022-12-04T19:33:48.387Z,43.03
2022-12-04T19:36:16.417Z,42.55
2022-12-04T19:38:43.868Z,42.87
2022-12-04T19:41:18.280Z,42.95
2022-12-04T19:43:51.524Z,42.65
2022-12-04T19:46:22.332Z,44.60
2022-12-04T19:48:50.191Z,43.10
2022-12-04T19:51:20.023Z,46.13
2022-12-04T19:53:49.057Z,48.18
2022-12-04T19:56:24.040Z,43.55
2022-12-04T19:58:56.681Z,43.95
2022-12-04T20:01:26.681Z,42.27
2022-12-04T20:03:55.401Z,42.02
2022-12-04T20:06:25.343Z,42.37
2022-12-04T20:09:00.950Z,42.59
2022-12-04T20:11:29.960Z,39.06
2022-12-04T20:14:00.466Z,40.58
2022-12-04T20:16:29.715Z,39.32
2022-12-04T20:18:57.456Z,41.06
2022-12-04T20:21:28.317Z,42.36
2022-12-04T20:23:55.506Z,41.01
2022-12-04T20:26:29.527Z,40.61
2022-12-04T20:28:58.780Z,41.13
2022-12-04T20:31:37.738Z,40.54
2022-12-04T20:34:07.579Z,41.40
2022-12-04T20:36:40.774Z,42.34
2022-12-04T20:39:09.144Z,41.26
2022-12-04T20:41:37.033Z,42.89
2022-12-04T20:44:06.634Z,42.04
2022-12-04T20:46:36.520Z,41.72
2022-12-04T20:49:07.221Z,41.21
2022-12-04T20:51:40.398Z,41.10
2022-12-04T20:54:10.886Z,41.00
2022-12-04T20:56:39.126Z,39.99
2022-12-04T20:59:10.122Z,40.55
2022-12-04T21:01:37.623Z,40.73
2022-12-04T21:04:05.844Z,41.15
2022-12-04T21:06:36.087Z,40.39
2022-12-04T21:09:10.307Z,40.27
2022-12-04T21:11:46.855Z,39.84
2022-12-04T21:14:35.536Z,44.53
2022-12-04T21:17:03.670Z,40.66
2022-12-04T21:19:30.702Z,39.99
2022-12-04T21:21:58.025Z,40.45
2022-12-04T21:24:28.623Z,41.73
2022-12-04T21:26:56.211Z,39.80
2022-12-04T21:29:23.383Z,38.96
2022-12-04T21:31:50.396Z,39.18
2022-12-04T21:34:17.841Z,38.25
2022-12-04T21:36:46.188Z,38.64
2022-12-04T21:39:15.063Z,38.60
2022-12-04T21:42:01.240Z,39.39
2022-12-04T21:44:28.318Z,40.25
2022-12-04T21:46:55.310Z,39.19
2022-12-04T21:49:22.485Z,38.40
2022-12-04T21:51:58.038Z,38.98
2022-12-04T21:54:27.390Z,38.82
2022-12-04T21:56:55.289Z,39.09
2022-12-04T21:59:24.262Z,39.48
2022-12-04T22:01:51.640Z,39.10
2022-12-04T22:04:18.770Z,38.87
2022-12-04T22:06:45.767Z,39.24
2022-12-04T22:09:13.059Z,39.65
2022-12-04T22:11:41.832Z,38.43
2022-12-04T22:14:09.987Z,38.60
2022-12-04T22:16:41.974Z,39.41
2022-12-04T22:19:11.611Z,38.92
2022-12-04T22:21:39.732Z,39.17
2022-12-04T22:24:07.150Z,38.17
2022-12-04T22:26:34.153Z,39.61
2022-12-04T22:29:01.235Z,39.63
2022-12-04T22:31:30.289Z,39.34
2022-12-04T22:33:59.955Z,38.88
2022-12-04T22:36:32.687Z,38.62
2022-12-04T22:39:09.362Z,39.36
2022-12-04T22:41:37.437Z,39.34
2022-12-04T22:44:05.378Z,39.16
2022-12-04T22:46:32.691Z,39.11
2022-12-04T22:49:00.084Z,39.54
2022-12-04T22:51:28.044Z,38.66
2022-12-04T22:53:56.995Z,39.00
2022-12-04T22:56:26.987Z,38.69
2022-12-04T22:58:55.139Z,38.15
2022-12-04T23:01:26.395Z,40.17
2022-12-04T23:03:54.390Z,39.73
2022-12-04T23:06:24.496Z,38.94
2022-12-04T23:09:00.713Z,41.09
2022-12-04T23:11:28.736Z,41.67
2022-12-04T23:14:01.458Z,41.41
2022-12-04T23:16:31.023Z,41.56
2022-12-04T23:18:58.608Z,41.91
2022-12-04T23:21:27.159Z,40.94
2022-12-04T23:23:56.065Z,39.30
2022-12-04T23:26:32.147Z,38.75
2022-12-04T23:29:01.577Z,39.01
2022-12-04T23:31:29.830Z,41.05
2022-12-04T23:33:57.022Z,39.13
2022-12-04T23:36:24.300Z,39.28
2022-12-04T23:38:51.782Z,38.71
2022-12-04T23:41:19.811Z,38.65
2022-12-04T23:43:48.410Z,36.90
2022-12-04T23:46:17.881Z,37.83
2022-12-04T23:48:45.907Z,38.20
2022-12-04T23:51:15.485Z,38.15
2022-12-04T23:53:42.813Z,37.14
2022-12-04T23:56:12.626Z,39.16
2022-12-04T23:58:40.124Z,38.43
